sensor_id;sensor_type;location;lat;lon;timestamp;temperature;humidity
2487;DHT22;1254;49.144;8.212;2022-12-29T00:01:00;9.90;99.90
2487;DHT22;1254;49.144;8.212;2022-12-29T00:03:27;9.90;99.90
2487;DHT22;1254;49.144;8.212;2022-12-29T00:05:56;9.90;99.90
2487;DHT22;1254;49.144;8.212;2022-12-29T00:08:42;10.00;99.90
2487;DHT22;1254;49.144;8.212;2022-12-29T00:11:15;10.00;99.90
2487;DHT22;1254;49.144;8.212;2022-12-29T00:13:43;10.10;99.90
2487;DHT22;1254;49.144;8.212;2022-12-29T00:16:29;10.10;99.90
2487;DHT22;1254;49.144;8.212;2022-12-29T00:18:58;10.20;99.90
2487;DHT22;1254;49.144;8.212;2022-12-29T00:21:27;10.30;99.90
2487;DHT22;1254;49.144;8.212;2022-12-29T00:24:14;10.30;99.90
2487;DHT22;1254;49.144;8.212;2022-12-29T00:27:11;10.30;99.90
2487;DHT22;1254;49.144;8.212;2022-12-29T00:29:57;10.40;99.90
2487;DHT22;1254;49.144;8.212;2022-12-29T00:32:43;10.40;99.90
2487;DHT22;1254;49.144;8.212;2022-12-29T00:35:30;10.40;99.90
2487;DHT22;1254;49.144;8.212;2022-12-29T00:38:04;10.50;99.90
2487;DHT22;1254;49.144;8.212;2022-12-29T00:40:50;10.50;99.90
2487;DHT22;1254;49.144;8.212;2022-12-29T00:43:37;10.60;99.90
2487;DHT22;1254;49.144;8.212;2022-12-29T00:46:22;10.70;99.90
2487;DHT22;1254;49.144;8.212;2022-12-29T00:48:50;10.90;99.90
2487;DHT22;1254;49.144;8.212;2022-12-29T00:51:36;11.10;99.90
2487;DHT22;1254;49.144;8.212;2022-12-29T00:54:04;11.40;99.90
2487;DHT22;1254;49.144;8.212;2022-12-29T00:56:32;11.50;99.90
2487;DHT22;1254;49.144;8.212;2022-12-29T00:59:02;11.50;99.90
2487;DHT22;1254;49.144;8.212;2022-12-29T01:01:30;11.50;99.90
2487;DHT22;1254;49.144;8.212;2022-12-29T01:03:58;11.60;99.90
2487;DHT22;1254;49.144;8.212;2022-12-29T01:06:27;11.70;99.90
2487;DHT22;1254;49.144;8.212;2022-12-29T01:08:55;11.90;99.90
2487;DHT22;1254;49.144;8.212;2022-12-29T01:11:37;11.90;99.90
2487;DHT22;1254;49.144;8.212;2022-12-29T01:14:07;11.90;99.90
2487;DHT22;1254;49.144;8.212;2022-12-29T01:16:36;11.90;99.90
2487;DHT22;1254;49.144;8.212;2022-12-29T01:19:05;11.90;99.90
2487;DHT22;1254;49.144;8.212;2022-12-29T01:21:33;11.90;99.90
2487;DHT22;1254;49.144;8.212;2022-12-29T01:24:02;11.90;99.90
2487;DHT22;1254;49.144;8.212;2022-12-29T01:26:30;11.90;99.90
2487;DHT22;1254;49.144;8.212;2022-12-29T01:28:58;11.80;99.90
2487;DHT22;1254;49.144;8.212;2022-12-29T01:31:27;11.80;99.90
2487;DHT22;1254;49.144;8.212;2022-12-29T01:33:55;11.70;99.90
2487;DHT22;1254;49.144;8.212;2022-12-29T01:36:24;11.80;99.90
2487;DHT22;1254;49.144;8.212;2022-12-29T01:38:52;11.70;99.90
2487;DHT22;1254;49.144;8.212;2022-12-29T01:41:21;11.70;99.90
2487;DHT22;1254;49.144;8.212;2022-12-29T01:43:51;11.80;99.90
2487;DHT22;1254;49.144;8.212;2022-12-29T01:46:24;11.70;99.90
2487;DHT22;1254;49.144;8.212;2022-12-29T01:48:59;11.60;99.90
2487;DHT22;1254;49.144;8.212;2022-12-29T01:51:34;11.60;99.90
2487;DHT22;1254;49.144;8.212;2022-12-29T01:54:05;11.60;99.90
2487;DHT22;1254;49.144;8.212;2022-12-29T01:56:36;11.50;99.90
2487;DHT22;1254;49.144;8.212;2022-12-29T01:59:07;11.60;99.90
2487;DHT22;1254;49.144;8.212;2022-12-29T02:01:36;11.60;99.90
2487;DHT22;1254;49.144;8.212;2022-12-29T02:04:05;11.60;99.90
2487;DHT22;1254;49.144;8.212;2022-12-29T02:06:38;11.60;99.90
2487;DHT22;1254;49.144;8.212;2022-12-29T02:09:08;11.60;99.90
2487;DHT22;1254;49.144;8.212;2022-12-29T02:11:36;11.60;99.90
2487;DHT22;1254;49.144;8.212;2022-12-29T02:14:08;11.60;99.90
2487;DHT22;1254;49.144;8.212;2022-12-29T02:16:50;11.70;99.90
2487;DHT22;1254;49.144;8.212;2022-12-29T02:19:55;11.70;99.90
2487;DHT22;1254;49.144;8.212;2022-12-29T02:22:32;11.80;99.90
2487;DHT22;1254;49.144;8.212;2022-12-29T02:25:37;11.70;99.90
2487;DHT22;1254;49.144;8.212;2022-12-29T02:31:29;11.70;99.90
2487;DHT22;1254;49.144;8.212;2022-12-29T02:34:09;11.50;99.90
2487;DHT22;1254;49.144;8.212;2022-12-29T02:36:43;11.40;99.90
2487;DHT22;1254;49.144;8.212;2022-12-29T02:39:18;11.30;99.90
2487;DHT22;1254;49.144;8.212;2022-12-29T02:41:55;11.20;99.90
2487;DHT22;1254;49.144;8.212;2022-12-29T02:44:28;11.20;99.90
2487;DHT22;1254;49.144;8.212;2022-12-29T02:47:07;11.10;99.90
2487;DHT22;1254;49.144;8.212;2022-12-29T02:49:42;11.10;99.90
2487;DHT22;1254;49.144;8.212;2022-12-29T02:52:16;11.10;99.90
2487;DHT22;1254;49.144;8.212;2022-12-29T02:54:48;11.10;99.90
2487;DHT22;1254;49.144;8.212;2022-12-29T02:57:29;11.20;99.90
2487;DHT22;1254;49.144;8.212;2022-12-29T03:00:00;11.20;99.90
2487;DHT22;1254;49.144;8.212;2022-12-29T03:02:45;11.10;99.90
2487;DHT22;1254;49.144;8.212;2022-12-29T03:05:29;11.10;99.90
2487;DHT22;1254;49.144;8.212;2022-12-29T03:08:05;11.10;99.90
2487;DHT22;1254;49.144;8.212;2022-12-29T03:10:41;11.10;99.90
2487;DHT22;1254;49.144;8.212;2022-12-29T03:13:19;11.00;99.90
2487;DHT22;1254;49.144;8.212;2022-12-29T03:16:14;11.10;99.90
2487;DHT22;1254;49.144;8.212;2022-12-29T03:18:56;11.10;99.90
2487;DHT22;1254;49.144;8.212;2022-12-29T03:21:31;11.10;99.90
2487;DHT22;1254;49.144;8.212;2022-12-29T03:24:22;11.10;99.90
2487;DHT22;1254;49.144;8.212;2022-12-29T03:26:54;11.20;99.90
2487;DHT22;1254;49.144;8.212;2022-12-29T03:29:23;11.20;99.90
2487;DHT22;1254;49.144;8.212;2022-12-29T03:31:52;11.20;99.90
2487;DHT22;1254;49.144;8.212;2022-12-29T03:34:24;11.20;99.90
2487;DHT22;1254;49.144;8.212;2022-12-29T03:36:58;11.20;99.90
2487;DHT22;1254;49.144;8.212;2022-12-29T03:39:28;11.10;99.90
2487;DHT22;1254;49.144;8.212;2022-12-29T03:41:59;11.10;99.90
2487;DHT22;1254;49.144;8.212;2022-12-29T03:44:33;11.10;99.90
2487;DHT22;1254;49.144;8.212;2022-12-29T03:47:02;11.10;99.90
2487;DHT22;1254;49.144;8.212;2022-12-29T03:49:31;11.10;99.90
2487;DHT22;1254;49.144;8.212;2022-12-29T03:51:59;11.00;99.90
2487;DHT22;1254;49.144;8.212;2022-12-29T03:54:28;11.00;99.90
2487;DHT22;1254;49.144;8.212;2022-12-29T03:56:56;10.90;99.90
2487;DHT22;1254;49.144;8.212;2022-12-29T03:59:36;10.90;99.90
2487;DHT22;1254;49.144;8.212;2022-12-29T04:02:04;10.80;99.90
2487;DHT22;1254;49.144;8.212;2022-12-29T04:04:36;10.80;99.90
2487;DHT22;1254;49.144;8.212;2022-12-29T04:07:04;10.90;99.90
2487;DHT22;1254;49.144;8.212;2022-12-29T04:09:32;10.90;99.90
2487;DHT22;1254;49.144;8.212;2022-12-29T04:12:00;10.80;99.90
2487;DHT22;1254;49.144;8.212;2022-12-29T04:14:28;10.80;99.90
2487;DHT22;1254;49.144;8.212;2022-12-29T04:16:57;10.80;99.90
2487;DHT22;1254;49.144;8.212;2022-12-29T04:19:25;10.80;99.90
2487;DHT22;1254;49.144;8.212;2022-12-29T04:21:54;10.80;99.90
2487;DHT22;1254;49.144;8.212;2022-12-29T04:24:22;10.80;99.90
2487;DHT22;1254;49.144;8.212;2022-12-29T04:26:50;10.80;99.90
2487;DHT22;1254;49.144;8.212;2022-12-29T04:29:47;10.80;99.90
2487;DHT22;1254;49.144;8.212;2022-12-29T04:32:33;10.80;99.90
2487;DHT22;1254;49.144;8.212;2022-12-29T04:35:01;10.80;99.90
2487;DHT22;1254;49.144;8.212;2022-12-29T04:37:31;10.90;99.90
2487;DHT22;1254;49.144;8.212;2022-12-29T04:39:58;10.90;99.90
2487;DHT22;1254;49.144;8.212;2022-12-29T04:42:26;10.90;99.90
2487;DHT22;1254;49.144;8.212;2022-12-29T04:44:54;10.90;99.90
2487;DHT22;1254;49.144;8.212;2022-12-29T04:47:36;10.90;99.90
2487;DHT22;1254;49.144;8.212;2022-12-29T04:50:23;10.90;99.90
2487;DHT22;1254;49.144;8.212;2022-12-29T04:52:56;10.90;99.90
2487;DHT22;1254;49.144;8.212;2022-12-29T04:55:25;10.80;99.90
2487;DHT22;1254;49.144;8.212;2022-12-29T04:57:53;10.80;99.90
2487;DHT22;1254;49.144;8.212;2022-12-29T05:00:21;10.90;99.90
2487;DHT22;1254;49.144;8.212;2022-12-29T05:02:49;10.90;99.90
2487;DHT22;1254;49.144;8.212;2022-12-29T05:05:17;11.00;99.90
2487;DHT22;1254;49.144;8.212;2022-12-29T05:07:49;11.10;99.90
2487;DHT22;1254;49.144;8.212;2022-12-29T05:10:18;11.30;99.90
2487;DHT22;1254;49.144;8.212;2022-12-29T05:12:48;11.30;99.90
2487;DHT22;1254;49.144;8.212;2022-12-29T05:15:16;11.30;99.90
2487;DHT22;1254;49.144;8.212;2022-12-29T05:17:44;11.30;99.90
2487;DHT22;1254;49.144;8.212;2022-12-29T05:20:12;11.40;99.90
2487;DHT22;1254;49.144;8.212;2022-12-29T05:22:40;11.40;99.90
2487;DHT22;1254;49.144;8.212;2022-12-29T05:25:09;11.30;99.90
2487;DHT22;1254;49.144;8.212;2022-12-29T05:27:51;11.30;99.90
2487;DHT22;1254;49.144;8.212;2022-12-29T05:30:30;11.30;99.90
2487;DHT22;1254;49.144;8.212;2022-12-29T05:32:58;11.30;99.90
2487;DHT22;1254;49.144;8.212;2022-12-29T05:35:26;11.20;99.90
2487;DHT22;1254;49.144;8.212;2022-12-29T05:37:54;11.20;99.90
2487;DHT22;1254;49.144;8.212;2022-12-29T05:40:22;11.10;99.90
2487;DHT22;1254;49.144;8.212;2022-12-29T05:42:54;11.20;99.90
2487;DHT22;1254;49.144;8.212;2022-12-29T05:45:56;11.20;99.90
2487;DHT22;1254;49.144;8.212;2022-12-29T05:48:33;11.20;99.90
2487;DHT22;1254;49.144;8.212;2022-12-29T05:51:24;11.20;99.90
2487;DHT22;1254;49.144;8.212;2022-12-29T05:53:54;11.30;99.90
2487;DHT22;1254;49.144;8.212;2022-12-29T05:56:23;11.30;99.90
2487;DHT22;1254;49.144;8.212;2022-12-29T05:58:57;11.30;99.90
2487;DHT22;1254;49.144;8.212;2022-12-29T06:01:26;11.40;99.90
2487;DHT22;1254;49.144;8.212;2022-12-29T06:03:54;11.40;99.90
2487;DHT22;1254;49.144;8.212;2022-12-29T06:06:22;11.50;99.90
2487;DHT22;1254;49.144;8.212;2022-12-29T06:08:50;11.60;99.90
2487;DHT22;1254;49.144;8.212;2022-12-29T06:11:19;11.70;99.90
2487;DHT22;1254;49.144;8.212;2022-12-29T06:13:54;11.70;99.90
2487;DHT22;1254;49.144;8.212;2022-12-29T06:16:25;11.70;99.90
2487;DHT22;1254;49.144;8.212;2022-12-29T06:18:57;11.80;99.90
2487;DHT22;1254;49.144;8.212;2022-12-29T06:21:24;11.70;99.90
2487;DHT22;1254;49.144;8.212;2022-12-29T06:23:53;11.70;99.90
2487;DHT22;1254;49.144;8.212;2022-12-29T06:26:21;11.80;99.90
2487;DHT22;1254;49.144;8.212;2022-12-29T06:28:49;11.80;99.90
2487;DHT22;1254;49.144;8.212;2022-12-29T06:31:17;11.80;99.90
2487;DHT22;1254;49.144;8.212;2022-12-29T06:33:47;11.70;99.90
2487;DHT22;1254;49.144;8.212;2022-12-29T06:36:15;11.70;99.90
2487;DHT22;1254;49.144;8.212;2022-12-29T06:38:43;11.70;99.90
2487;DHT22;1254;49.144;8.212;2022-12-29T06:41:11;11.70;99.90
2487;DHT22;1254;49.144;8.212;2022-12-29T06:44:17;11.70;99.90
2487;DHT22;1254;49.144;8.212;2022-12-29T06:46:50;11.70;99.90
2487;DHT22;1254;49.144;8.212;2022-12-29T06:49:19;11.60;99.90
2487;DHT22;1254;49.144;8.212;2022-12-29T06:51:48;11.70;99.90
2487;DHT22;1254;49.144;8.212;2022-12-29T06:54:15;11.70;99.90
2487;DHT22;1254;49.144;8.212;2022-12-29T06:56:43;11.60;99.90
2487;DHT22;1254;49.144;8.212;2022-12-29T06:59:11;11.50;99.90
2487;DHT22;1254;49.144;8.212;2022-12-29T07:01:39;11.60;99.90
2487;DHT22;1254;49.144;8.212;2022-12-29T07:04:07;11.50;99.90
2487;DHT22;1254;49.144;8.212;2022-12-29T07:06:37;11.50;99.90
2487;DHT22;1254;49.144;8.212;2022-12-29T07:09:05;11.50;99.90
2487;DHT22;1254;49.144;8.212;2022-12-29T07:11:33;11.50;99.90
2487;DHT22;1254;49.144;8.212;2022-12-29T07:14:02;11.70;99.90
2487;DHT22;1254;49.144;8.212;2022-12-29T07:16:30;11.60;99.90
2487;DHT22;1254;49.144;8.212;2022-12-29T07:18:57;11.60;99.90
2487;DHT22;1254;49.144;8.212;2022-12-29T07:21:26;11.60;99.90
2487;DHT22;1254;49.144;8.212;2022-12-29T07:23:55;11.60;99.90
2487;DHT22;1254;49.144;8.212;2022-12-29T07:26:23;11.50;99.90
2487;DHT22;1254;49.144;8.212;2022-12-29T07:28:51;11.50;99.90
2487;DHT22;1254;49.144;8.212;2022-12-29T07:31:21;11.50;99.90
2487;DHT22;1254;49.144;8.212;2022-12-29T07:33:49;11.50;99.90
2487;DHT22;1254;49.144;8.212;2022-12-29T07:36:17;11.40;99.90
2487;DHT22;1254;49.144;8.212;2022-12-29T07:38:45;11.50;99.90
2487;DHT22;1254;49.144;8.212;2022-12-29T07:41:14;11.50;99.90
2487;DHT22;1254;49.144;8.212;2022-12-29T07:43:42;11.50;99.90
2487;DHT22;1254;49.144;8.212;2022-12-29T07:46:35;11.50;99.90
2487;DHT22;1254;49.144;8.212;2022-12-29T07:49:03;11.50;99.90
2487;DHT22;1254;49.144;8.212;2022-12-29T07:51:31;11.40;99.90
2487;DHT22;1254;49.144;8.212;2022-12-29T07:53:59;11.50;99.90
2487;DHT22;1254;49.144;8.212;2022-12-29T07:56:29;11.50;99.90
2487;DHT22;1254;49.144;8.212;2022-12-29T07:58:57;11.50;99.90
2487;DHT22;1254;49.144;8.212;2022-12-29T08:01:24;11.50;99.90
2487;DHT22;1254;49.144;8.212;2022-12-29T08:03:52;11.50;99.90
2487;DHT22;1254;49.144;8.212;2022-12-29T08:06:20;11.60;99.90
2487;DHT22;1254;49.144;8.212;2022-12-29T08:08:48;11.60;99.90
2487;DHT22;1254;49.144;8.212;2022-12-29T08:11:16;11.70;99.90
2487;DHT22;1254;49.144;8.212;2022-12-29T08:13:46;11.80;99.90
2487;DHT22;1254;49.144;8.212;2022-12-29T08:16:14;11.90;99.90
2487;DHT22;1254;49.144;8.212;2022-12-29T08:18:42;12.10;99.90
2487;DHT22;1254;49.144;8.212;2022-12-29T08:21:09;12.20;99.90
2487;DHT22;1254;49.144;8.212;2022-12-29T08:23:37;12.30;99.90
2487;DHT22;1254;49.144;8.212;2022-12-29T08:26:06;12.40;99.90
2487;DHT22;1254;49.144;8.212;2022-12-29T08:28:34;12.50;99.90
2487;DHT22;1254;49.144;8.212;2022-12-29T08:31:03;12.70;99.90
2487;DHT22;1254;49.144;8.212;2022-12-29T08:33:31;12.80;99.90
2487;DHT22;1254;49.144;8.212;2022-12-29T08:36:00;12.80;99.90
2487;DHT22;1254;49.144;8.212;2022-12-29T08:38:29;12.80;99.90
2487;DHT22;1254;49.144;8.212;2022-12-29T08:40:58;13.00;99.90
2487;DHT22;1254;49.144;8.212;2022-12-29T08:43:27;12.90;99.90
2487;DHT22;1254;49.144;8.212;2022-12-29T08:45:57;12.90;99.90
2487;DHT22;1254;49.144;8.212;2022-12-29T08:48:27;12.90;99.90
2487;DHT22;1254;49.144;8.212;2022-12-29T08:50:54;13.00;99.90
2487;DHT22;1254;49.144;8.212;2022-12-29T08:53:22;13.00;99.90
2487;DHT22;1254;49.144;8.212;2022-12-29T08:55:56;13.00;99.90
2487;DHT22;1254;49.144;8.212;2022-12-29T08:58:24;13.10;99.90
2487;DHT22;1254;49.144;8.212;2022-12-29T09:00:53;13.10;99.90
2487;DHT22;1254;49.144;8.212;2022-12-29T09:03:22;13.10;99.90
2487;DHT22;1254;49.144;8.212;2022-12-29T09:05:53;13.10;99.90
2487;DHT22;1254;49.144;8.212;2022-12-29T09:08:22;13.10;99.90
2487;DHT22;1254;49.144;8.212;2022-12-29T09:10:50;13.10;99.90
2487;DHT22;1254;49.144;8.212;2022-12-29T09:13:18;13.00;99.90
2487;DHT22;1254;49.144;8.212;2022-12-29T09:15:46;12.90;99.90
2487;DHT22;1254;49.144;8.212;2022-12-29T09:18:14;12.90;99.90
2487;DHT22;1254;49.144;8.212;2022-12-29T09:20:42;12.80;99.90
2487;DHT22;1254;49.144;8.212;2022-12-29T09:23:11;12.70;99.90
2487;DHT22;1254;49.144;8.212;2022-12-29T09:25:39;12.60;99.90
2487;DHT22;1254;49.144;8.212;2022-12-29T09:28:09;12.60;99.90
2487;DHT22;1254;49.144;8.212;2022-12-29T09:30:37;12.60;99.90
2487;DHT22;1254;49.144;8.212;2022-12-29T09:33:05;12.60;99.90
2487;DHT22;1254;49.144;8.212;2022-12-29T09:38:02;12.50;99.90
2487;DHT22;1254;49.144;8.212;2022-12-29T09:40:32;12.50;99.90
2487;DHT22;1254;49.144;8.212;2022-12-29T09:43:11;12.60;99.90
2487;DHT22;1254;49.144;8.212;2022-12-29T09:53:18;12.80;99.90
2487;DHT22;1254;49.144;8.212;2022-12-29T09:58:24;12.80;99.90
2487;DHT22;1254;49.144;8.212;2022-12-29T10:00:58;12.70;99.90
2487;DHT22;1254;49.144;8.212;2022-12-29T10:03:36;12.60;99.90
